Albert, KS

10:02 PM CDT on September 20, 2014 (GMT -0500)
Great Bend Municipal | Change Station
CLOSE
Current Station
Airport
Location: Great Bend,
Elevation: 1886 ft
Nearby Weather Stations

Elev 1886 ft 38.34 °N, 98.86 °W | Updated 7 minutes ago

Partly Cloudy
Partly Cloudy
77 °F
Feels Like 77 °F
N
8
Wind Variable Wind from NE

Today
High -- | Low -- °F
--% Chance of Precip.
Yesterday
High -- | Low -- °F
Precip. -- in
7:22 AM 7:36 PM
Waning Crescent, 9% visible
Pressure 30.05 in
Visibility 10.0 miles
Clouds Scattered Clouds 6000 ft
Dew Point 66 °F
Humidity 69%
Rainfall 0.23 in
Snow Depth Not available.
UV 0 out of 12
Pollen 6.00 out of 12
Air Quality Not available.
Flu Activity Not available.
METAR KGBD 210255Z AUTO 05007KT 10SM SCT060 25/19 A3005 RMK AO1 LTG DSNT E 52030

More Conditions Fewer Conditions

Pressure 30.05 in
Visibility 10.0 miles
Clouds Scattered Clouds 6000 ft
Dew Point 66 °F
Humidity 69%
Rainfall 0.23 in
Snow Depth Not available.
UV 0 out of 12
Pollen 6.00 out of 12
Air Quality Not available.
Flu Activity Not available.
METAR KGBD 210255Z AUTO 05007KT 10SM SCT060 25/19 A3005 RMK AO1 LTG DSNT E 52030

More Conditions Fewer Conditions

10-Day Weather Forecast

Almanac

Astronomy

Sep. 20, 2014 Rise Set
Actual Time 7:22 AM CDT 7:36 PM CDT
Civil Twilight 6:55 AM CDT 8:02 PM CDT
Nautical Twilight 6:24 AM CDT 8:33 PM CDT
Astronomical Twilight 5:52 AM CDT 9:05 PM CDT
Moon 4:04 AM CDT (9/20) 5:38 PM CDT (9/20)
Length of Visible Light 13h 07m
Length of Day
12h 14m
Tomorrow will be 2m 28s shorter.
Waning Crescent, 9% of the Moon is Illuminated
Today
Waning Crescent
Sep 24
New
Oct 1
First Quarter
Oct 8
Full
Oct 15
Last Quarter

Today's Extremes

State Highs State Lows

Community

WunderPhotos

Upload Photos

1,755,067 photos uploaded!

WunderBlogs® & News

Nearby

Snow Depth

Station Depth Elevation
No new snow has been reported.

Earthquake Activity

City Distance Mag. Time & Date
Medford, Oklahoma 133 miles 3.2 2:10 AM CDT
2014-09-20
Cherokee, Oklahoma 129 miles 2.8 10:11 PM CDT
2014-09-18
Medford, Oklahoma 150 miles 4.0 8:31 PM CDT
2014-09-18
Medford, Oklahoma 134 miles 3.0 5:28 AM CDT
2014-09-18
Minimum magnitude displayed is 2.5.

Coastal Water Temperatures

Place Temperature
No Stations Reporting

Nearby Weather Stations